SWA699 KMEM-KMCO
Flight info
| Callsign | SWA699 |
|---|---|
| Flight time | 1h 29m |
| Altitude | 39000 |
| Route | BBKNG7 KERMI VLKNN DEEDA GRNCH5 |
| Aircraft | B738/M-SDE2E3FGHIRWXY/LB1 |
Departure
| Time | 2026-05-05 16:51 |
|---|---|
| Airport | Memphis International Airport (KMEM) |
Arrival
| Time | 2026-05-05 18:20 |
|---|---|
| Airport | Orlando International Airport (KMCO) |
| Time | Latitude | Longitude | Altitude | Speed | Heading |
|---|---|---|---|---|---|
| 2026-05-05 16:11 | 35.04247 | -89.98239 | 329 ft | 0 kts | 112° |
| 2026-05-05 16:40 | 35.04255 | -89.98262 | 325 ft | 4 kts | 112° |
| 2026-05-05 16:40 | 35.04265 | -89.98293 | 326 ft | 4 kts | 113° |
| 2026-05-05 16:41 | 35.04273 | -89.98313 | 325 ft | 4 kts | 116° |
| 2026-05-05 16:41 | 35.04286 | -89.98341 | 327 ft | 4 kts | 136° |
| 2026-05-05 16:41 | 35.04304 | -89.98351 | 327 ft | 2 kts | 202° |
| 2026-05-05 16:41 | 35.04295 | -89.98363 | 327 ft | 4 kts | 239° |
| 2026-05-05 16:42 | 35.04291 | -89.98395 | 328 ft | 4 kts | 268° |
| 2026-05-05 16:42 | 35.04292 | -89.98428 | 327 ft | 4 kts | 270° |
| 2026-05-05 16:42 | 35.04291 | -89.98455 | 326 ft | 0 kts | 268° |
| 2026-05-05 16:46 | 35.04291 | -89.98460 | 325 ft | 2 kts | 268° |
| 2026-05-05 16:46 | 35.04301 | -89.98486 | 325 ft | 4 kts | 321° |
| 2026-05-05 16:46 | 35.04330 | -89.98498 | 325 ft | 6 kts | 347° |
| 2026-05-05 16:47 | 35.04378 | -89.98503 | 327 ft | 8 kts | 358° |
| 2026-05-05 16:47 | 35.04437 | -89.98504 | 326 ft | 8 kts | 359° |
| 2026-05-05 16:47 | 35.04494 | -89.98505 | 325 ft | 8 kts | 358° |
| 2026-05-05 16:47 | 35.04552 | -89.98507 | 325 ft | 9 kts | 359° |
| 2026-05-05 16:48 | 35.04619 | -89.98508 | 327 ft | 10 kts | 360° |
| 2026-05-05 16:48 | 35.04694 | -89.98509 | 325 ft | 11 kts | 359° |
| 2026-05-05 16:48 | 35.04769 | -89.98509 | 325 ft | 11 kts | 359° |
| 2026-05-05 16:48 | 35.04841 | -89.98512 | 326 ft | 10 kts | 359° |
| 2026-05-05 16:49 | 35.04912 | -89.98517 | 325 ft | 10 kts | 341° |
| 2026-05-05 16:49 | 35.04935 | -89.98589 | 325 ft | 9 kts | 269° |
| 2026-05-05 16:49 | 35.04935 | -89.98614 | 323 ft | 0 kts | 269° |
| 2026-05-05 16:50 | 35.04935 | -89.98636 | 321 ft | 6 kts | 269° |
| 2026-05-05 16:50 | 35.04916 | -89.98726 | 314 ft | 16 kts | 225° |
| 2026-05-05 16:50 | 35.04771 | -89.98740 | 313 ft | 45 kts | 179° |
| 2026-05-05 16:50 | 35.04152 | -89.98727 | 314 ft | 129 kts | 178° |
| 2026-05-05 16:51 | 35.03104 | -89.98706 | 766 ft | 161 kts | 175° |
| 2026-05-05 16:51 | 35.02030 | -89.98677 | 2009 ft | 139 kts | 180° |
| 2026-05-05 16:51 | 35.01094 | -89.98629 | 3026 ft | 137 kts | 186° |
| 2026-05-05 16:51 | 35.00067 | -89.98584 | 3317 ft | 159 kts | 188° |
| 2026-05-05 16:52 | 34.98893 | -89.98507 | 3495 ft | 185 kts | 177° |
| 2026-05-05 16:52 | 34.97621 | -89.97841 | 3633 ft | 210 kts | 160° |
| 2026-05-05 16:52 | 34.96284 | -89.96938 | 3787 ft | 229 kts | 159° |
| 2026-05-05 16:52 | 34.94833 | -89.95954 | 4016 ft | 251 kts | 155° |
| 2026-05-05 16:53 | 34.93540 | -89.94405 | 4588 ft | 273 kts | 127° |
| 2026-05-05 16:53 | 34.92916 | -89.92171 | 5373 ft | 285 kts | 106° |
| 2026-05-05 16:53 | 34.92723 | -89.89758 | 6047 ft | 294 kts | 98° |
| 2026-05-05 16:53 | 34.92643 | -89.87234 | 6745 ft | 298 kts | 97° |
| 2026-05-05 16:54 | 34.92547 | -89.84671 | 7363 ft | 306 kts | 97° |
| 2026-05-05 16:54 | 34.92463 | -89.82086 | 8033 ft | 311 kts | 97° |
| 2026-05-05 16:54 | 34.92347 | -89.79428 | 8741 ft | 316 kts | 97° |
| 2026-05-05 16:54 | 34.92217 | -89.76721 | 9443 ft | 322 kts | 97° |
| 2026-05-05 16:55 | 34.92083 | -89.73995 | 10111 ft | 328 kts | 97° |
| 2026-05-05 16:55 | 34.91943 | -89.71150 | 10472 ft | 347 kts | 97° |
| 2026-05-05 16:55 | 34.91792 | -89.68115 | 10699 ft | 368 kts | 96° |
| 2026-05-05 16:55 | 34.91637 | -89.64958 | 11227 ft | 376 kts | 96° |
| 2026-05-05 16:56 | 34.91547 | -89.61783 | 11921 ft | 380 kts | 93° |
| 2026-05-05 16:56 | 34.91540 | -89.58537 | 12698 ft | 384 kts | 92° |
| 2026-05-05 16:56 | 34.91557 | -89.55251 | 13484 ft | 388 kts | 91° |
| 2026-05-05 16:56 | 34.91575 | -89.51986 | 14216 ft | 393 kts | 91° |
| 2026-05-05 16:57 | 34.91585 | -89.48618 | 14909 ft | 398 kts | 91° |
| 2026-05-05 16:57 | 34.91588 | -89.45227 | 15593 ft | 402 kts | 91° |
| 2026-05-05 16:57 | 34.91584 | -89.41791 | 16278 ft | 408 kts | 91° |
| 2026-05-05 16:57 | 34.91577 | -89.38318 | 16963 ft | 412 kts | 90° |
| 2026-05-05 16:58 | 34.91568 | -89.34791 | 17627 ft | 418 kts | 90° |
| 2026-05-05 16:58 | 34.91558 | -89.31272 | 18263 ft | 423 kts | 90° |
| 2026-05-05 16:58 | 34.91547 | -89.27646 | 18818 ft | 428 kts | 90° |
| 2026-05-05 16:58 | 34.91535 | -89.23982 | 19390 ft | 433 kts | 89° |
| 2026-05-05 16:59 | 34.91443 | -89.20318 | 19904 ft | 440 kts | 96° |
| 2026-05-05 16:59 | 34.90874 | -89.16615 | 20404 ft | 446 kts | 104° |
| 2026-05-05 16:59 | 34.90144 | -89.12960 | 20960 ft | 450 kts | 104° |
| 2026-05-05 16:59 | 34.89430 | -89.09218 | 21508 ft | 454 kts | 103° |
| 2026-05-05 17:00 | 34.88749 | -89.05439 | 21974 ft | 459 kts | 103° |
| 2026-05-05 17:00 | 34.88085 | -89.01620 | 22618 ft | 462 kts | 102° |
| 2026-05-05 17:00 | 34.87391 | -88.97853 | 23074 ft | 468 kts | 103° |
| 2026-05-05 17:00 | 34.86683 | -88.93954 | 23517 ft | 474 kts | 101° |
| 2026-05-05 17:01 | 34.86091 | -88.89981 | 23964 ft | 477 kts | 100° |
| 2026-05-05 17:01 | 34.85454 | -88.85998 | 24405 ft | 480 kts | 101° |
| 2026-05-05 17:01 | 34.84786 | -88.82052 | 24923 ft | 481 kts | 101° |
| 2026-05-05 17:01 | 34.84092 | -88.78065 | 25454 ft | 481 kts | 101° |
| 2026-05-05 17:02 | 34.83388 | -88.74055 | 25847 ft | 486 kts | 101° |
| 2026-05-05 17:02 | 34.82679 | -88.70006 | 26203 ft | 491 kts | 101° |
| 2026-05-05 17:02 | 34.81971 | -88.65958 | 26589 ft | 494 kts | 101° |
| 2026-05-05 17:02 | 34.81254 | -88.61844 | 26989 ft | 497 kts | 101° |
| 2026-05-05 17:03 | 34.80531 | -88.57699 | 27389 ft | 500 kts | 101° |
| 2026-05-05 17:03 | 34.79806 | -88.53540 | 27760 ft | 503 kts | 101° |
| 2026-05-05 17:03 | 34.79086 | -88.49413 | 28115 ft | 506 kts | 101° |
| 2026-05-05 17:03 | 34.78348 | -88.45200 | 28513 ft | 509 kts | 101° |
| 2026-05-05 17:04 | 34.77605 | -88.40970 | 28962 ft | 510 kts | 101° |
| 2026-05-05 17:04 | 34.76868 | -88.36782 | 29327 ft | 513 kts | 100° |
| 2026-05-05 17:04 | 34.76117 | -88.32518 | 29614 ft | 517 kts | 100° |
| 2026-05-05 17:04 | 34.75358 | -88.28221 | 29920 ft | 521 kts | 100° |
| 2026-05-05 17:05 | 34.74589 | -88.23878 | 30204 ft | 524 kts | 100° |
| 2026-05-05 17:05 | 34.73813 | -88.19575 | 30474 ft | 527 kts | 103° |
| 2026-05-05 17:05 | 34.72483 | -88.15386 | 30655 ft | 533 kts | 120° |
| 2026-05-05 17:05 | 34.70279 | -88.11775 | 30782 ft | 532 kts | 140° |
| 2026-05-05 17:06 | 34.67551 | -88.08798 | 30966 ft | 535 kts | 141° |
| 2026-05-05 17:06 | 34.64828 | -88.05667 | 31247 ft | 538 kts | 139° |
| 2026-05-05 17:06 | 34.62151 | -88.02475 | 31581 ft | 538 kts | 139° |
| 2026-05-05 17:06 | 34.59495 | -87.99262 | 31935 ft | 538 kts | 139° |
| 2026-05-05 17:07 | 34.56879 | -87.96086 | 32273 ft | 539 kts | 139° |
| 2026-05-05 17:07 | 34.54207 | -87.92852 | 32552 ft | 540 kts | 139° |
| 2026-05-05 17:07 | 34.51532 | -87.89630 | 32828 ft | 542 kts | 139° |
| 2026-05-05 17:07 | 34.48846 | -87.86408 | 33154 ft | 542 kts | 140° |
| 2026-05-05 17:08 | 34.46191 | -87.83234 | 33463 ft | 543 kts | 140° |
| 2026-05-05 17:08 | 34.43495 | -87.80019 | 33700 ft | 544 kts | 140° |
| 2026-05-05 17:08 | 34.40770 | -87.76775 | 33936 ft | 547 kts | 140° |
| 2026-05-05 17:08 | 34.38086 | -87.73582 | 34198 ft | 548 kts | 140° |
| 2026-05-05 17:09 | 34.35362 | -87.70342 | 34501 ft | 547 kts | 140° |
| 2026-05-05 17:09 | 34.32641 | -87.67107 | 34831 ft | 546 kts | 140° |
| 2026-05-05 17:09 | 34.29930 | -87.63886 | 35114 ft | 546 kts | 140° |
| 2026-05-05 17:09 | 34.27245 | -87.60700 | 35345 ft | 547 kts | 140° |
| 2026-05-05 17:10 | 34.24521 | -87.57473 | 35590 ft | 548 kts | 140° |
| 2026-05-05 17:10 | 34.21799 | -87.54234 | 35858 ft | 548 kts | 140° |
| 2026-05-05 17:10 | 34.19078 | -87.51000 | 36132 ft | 547 kts | 140° |
| 2026-05-05 17:10 | 34.16372 | -87.47797 | 36353 ft | 548 kts | 140° |
| 2026-05-05 17:11 | 34.13647 | -87.44580 | 36603 ft | 548 kts | 141° |
| 2026-05-05 17:11 | 34.10914 | -87.41361 | 36863 ft | 548 kts | 141° |
| 2026-05-05 17:11 | 34.08177 | -87.38139 | 37105 ft | 548 kts | 141° |
| 2026-05-05 17:11 | 34.05442 | -87.34922 | 37356 ft | 548 kts | 141° |
| 2026-05-05 17:12 | 34.02738 | -87.31743 | 37596 ft | 549 kts | 141° |
| 2026-05-05 17:12 | 33.99980 | -87.28503 | 37808 ft | 549 kts | 141° |
| 2026-05-05 17:12 | 33.97240 | -87.25286 | 38031 ft | 550 kts | 141° |
| 2026-05-05 17:12 | 33.94527 | -87.22104 | 38278 ft | 549 kts | 141° |
| 2026-05-05 17:13 | 33.91781 | -87.18887 | 38483 ft | 548 kts | 141° |
| 2026-05-05 17:13 | 33.89038 | -87.15674 | 38670 ft | 548 kts | 141° |
| 2026-05-05 17:13 | 33.86300 | -87.12472 | 38822 ft | 549 kts | 141° |
| 2026-05-05 17:13 | 33.83595 | -87.09313 | 39007 ft | 549 kts | 141° |
| 2026-05-05 17:14 | 33.78072 | -87.02873 | 39010 ft | 552 kts | 141° |
| 2026-05-05 17:14 | 33.72561 | -86.96455 | 39015 ft | 547 kts | 141° |
| 2026-05-05 17:15 | 33.67149 | -86.90164 | 39063 ft | 544 kts | 141° |
| 2026-05-05 17:15 | 33.61728 | -86.83874 | 39063 ft | 542 kts | 141° |
| 2026-05-05 17:16 | 33.56347 | -86.77617 | 39066 ft | 541 kts | 141° |
| 2026-05-05 17:16 | 33.50918 | -86.71304 | 39083 ft | 542 kts | 141° |
| 2026-05-05 17:17 | 33.45507 | -86.65017 | 39072 ft | 543 kts | 141° |
| 2026-05-05 17:17 | 33.40092 | -86.58733 | 39058 ft | 546 kts | 141° |
| 2026-05-05 17:18 | 33.34603 | -86.52384 | 39069 ft | 547 kts | 141° |
| 2026-05-05 17:18 | 33.28962 | -86.46317 | 39066 ft | 543 kts | 149° |
| 2026-05-05 17:19 | 33.22840 | -86.41044 | 39079 ft | 542 kts | 152° |
| 2026-05-05 17:19 | 33.16682 | -86.35900 | 39085 ft | 543 kts | 151° |
| 2026-05-05 17:20 | 33.10502 | -86.30642 | 39084 ft | 544 kts | 150° |
| 2026-05-05 17:20 | 33.04396 | -86.25373 | 39038 ft | 543 kts | 150° |
| 2026-05-05 17:21 | 32.98264 | -86.20073 | 39038 ft | 543 kts | 150° |
| 2026-05-05 17:22 | 32.89129 | -86.12208 | 39030 ft | 540 kts | 150° |
| 2026-05-05 17:22 | 32.83070 | -86.07011 | 39041 ft | 538 kts | 150° |
| 2026-05-05 17:23 | 32.77001 | -86.01812 | 39037 ft | 535 kts | 150° |
| 2026-05-05 17:23 | 32.70995 | -85.96677 | 39042 ft | 533 kts | 150° |
| 2026-05-05 17:24 | 32.64968 | -85.91534 | 39047 ft | 532 kts | 150° |
| 2026-05-05 17:24 | 32.58979 | -85.86431 | 39049 ft | 532 kts | 150° |
| 2026-05-05 17:25 | 32.52960 | -85.81312 | 39026 ft | 532 kts | 150° |
| 2026-05-05 17:25 | 32.46957 | -85.76213 | 39049 ft | 532 kts | 150° |
| 2026-05-05 17:26 | 32.40920 | -85.71096 | 39070 ft | 533 kts | 150° |
| 2026-05-05 17:26 | 32.34914 | -85.66013 | 39064 ft | 534 kts | 150° |
| 2026-05-05 17:27 | 32.28838 | -85.60879 | 39060 ft | 536 kts | 150° |
| 2026-05-05 17:27 | 32.22775 | -85.55763 | 39054 ft | 536 kts | 150° |
| 2026-05-05 17:28 | 32.16683 | -85.50633 | 39061 ft | 537 kts | 150° |
| 2026-05-05 17:28 | 32.10609 | -85.45526 | 39065 ft | 538 kts | 151° |
| 2026-05-05 17:29 | 32.04521 | -85.40416 | 39073 ft | 539 kts | 150° |
| 2026-05-05 17:29 | 31.99422 | -85.36142 | 39067 ft | 539 kts | 150° |
| 2026-05-05 17:30 | 31.93291 | -85.31011 | 39078 ft | 539 kts | 150° |
| 2026-05-05 17:30 | 31.87195 | -85.25919 | 39087 ft | 538 kts | 150° |
| 2026-05-05 17:31 | 31.81111 | -85.20845 | 39092 ft | 538 kts | 150° |
| 2026-05-05 17:31 | 31.75026 | -85.15780 | 39085 ft | 537 kts | 150° |
| 2026-05-05 17:32 | 31.68923 | -85.10708 | 39047 ft | 537 kts | 151° |
| 2026-05-05 17:32 | 31.62847 | -85.05667 | 39077 ft | 535 kts | 151° |
| 2026-05-05 17:33 | 31.57197 | -84.99930 | 39087 ft | 546 kts | 127° |
| 2026-05-05 17:33 | 31.55347 | -84.96051 | 39090 ft | 545 kts | 109° |
| 2026-05-05 17:33 | 31.54063 | -84.91869 | 39112 ft | 543 kts | 106° |
| 2026-05-05 17:34 | 31.51653 | -84.83493 | 39091 ft | 544 kts | 106° |
| 2026-05-05 17:34 | 31.49170 | -84.75085 | 39088 ft | 544 kts | 107° |
| 2026-05-05 17:35 | 31.46623 | -84.66770 | 39102 ft | 545 kts | 108° |
| 2026-05-05 17:35 | 31.44046 | -84.58456 | 39087 ft | 545 kts | 107° |
| 2026-05-05 17:36 | 31.41445 | -84.50070 | 39082 ft | 545 kts | 107° |
| 2026-05-05 17:36 | 31.39013 | -84.42231 | 39069 ft | 545 kts | 107° |
| 2026-05-05 17:37 | 31.36444 | -84.33966 | 39083 ft | 545 kts | 107° |
| 2026-05-05 17:37 | 31.33857 | -84.25669 | 39099 ft | 545 kts | 107° |
| 2026-05-05 17:38 | 31.31263 | -84.17374 | 39095 ft | 545 kts | 107° |
| 2026-05-05 17:38 | 31.28650 | -84.09038 | 39091 ft | 545 kts | 107° |
| 2026-05-05 17:39 | 31.26047 | -84.00745 | 39090 ft | 545 kts | 107° |
| 2026-05-05 17:39 | 31.23424 | -83.92406 | 39097 ft | 545 kts | 107° |
| 2026-05-05 17:40 | 31.20801 | -83.84099 | 39103 ft | 544 kts | 107° |
| 2026-05-05 17:40 | 31.18181 | -83.75827 | 39100 ft | 544 kts | 107° |
| 2026-05-05 17:41 | 31.15565 | -83.67588 | 39108 ft | 543 kts | 107° |
| 2026-05-05 17:41 | 31.12921 | -83.59282 | 39092 ft | 543 kts | 108° |
| 2026-05-05 17:42 | 31.10295 | -83.51053 | 39110 ft | 543 kts | 107° |
| 2026-05-05 17:42 | 31.07647 | -83.42779 | 39061 ft | 542 kts | 107° |
| 2026-05-05 17:43 | 31.05013 | -83.34569 | 39070 ft | 541 kts | 107° |
| 2026-05-05 17:43 | 31.02380 | -83.26381 | 39078 ft | 541 kts | 107° |
| 2026-05-05 17:44 | 30.99732 | -83.18168 | 39083 ft | 541 kts | 108° |
| 2026-05-05 17:44 | 30.97074 | -83.09946 | 39080 ft | 541 kts | 107° |
| 2026-05-05 17:45 | 30.94426 | -83.01779 | 39075 ft | 540 kts | 107° |
| 2026-05-05 17:45 | 30.91772 | -82.93614 | 39098 ft | 540 kts | 107° |
| 2026-05-05 17:46 | 30.88617 | -82.85683 | 39085 ft | 541 kts | 128° |
| 2026-05-05 17:46 | 30.86039 | -82.82519 | 39129 ft | 535 kts | 145° |
| 2026-05-05 17:46 | 30.83150 | -82.79898 | 39152 ft | 533 kts | 147° |
| 2026-05-05 17:47 | 30.77195 | -82.74714 | 39137 ft | 534 kts | 147° |
| 2026-05-05 17:47 | 30.71286 | -82.69511 | 39144 ft | 535 kts | 146° |
| 2026-05-05 17:48 | 30.65364 | -82.64197 | 39155 ft | 537 kts | 146° |
| 2026-05-05 17:48 | 30.59482 | -82.58895 | 39157 ft | 538 kts | 146° |
| 2026-05-05 17:49 | 30.53560 | -82.53571 | 39166 ft | 539 kts | 146° |
| 2026-05-05 17:49 | 30.47634 | -82.48260 | 39180 ft | 540 kts | 146° |
| 2026-05-05 17:50 | 30.41667 | -82.42922 | 39182 ft | 540 kts | 146° |
| 2026-05-05 17:50 | 30.35723 | -82.37614 | 39218 ft | 541 kts | 146° |
| 2026-05-05 17:51 | 30.29776 | -82.32311 | 39038 ft | 544 kts | 146° |
| 2026-05-05 17:51 | 30.26750 | -82.29619 | 38450 ft | 547 kts | 145° |
| 2026-05-05 17:51 | 30.23732 | -82.26931 | 37872 ft | 545 kts | 145° |
| 2026-05-05 17:51 | 30.20618 | -82.24445 | 37271 ft | 537 kts | 158° |
| 2026-05-05 17:52 | 30.17235 | -82.22929 | 36757 ft | 520 kts | 174° |
| 2026-05-05 17:52 | 30.13710 | -82.22185 | 36185 ft | 511 kts | 179° |
| 2026-05-05 17:52 | 30.10194 | -82.21576 | 35590 ft | 511 kts | 179° |
| 2026-05-05 17:52 | 30.06671 | -82.20967 | 34987 ft | 512 kts | 179° |
| 2026-05-05 17:53 | 30.03179 | -82.20329 | 34316 ft | 515 kts | 178° |
| 2026-05-05 17:53 | 29.99619 | -82.19643 | 33596 ft | 517 kts | 177° |
| 2026-05-05 17:53 | 29.96054 | -82.18934 | 32882 ft | 518 kts | 177° |
| 2026-05-05 17:53 | 29.92501 | -82.18225 | 32161 ft | 518 kts | 176° |
| 2026-05-05 17:54 | 29.88994 | -82.17528 | 31460 ft | 518 kts | 176° |
| 2026-05-05 17:54 | 29.85425 | -82.16814 | 30701 ft | 518 kts | 176° |
| 2026-05-05 17:54 | 29.81874 | -82.16103 | 30107 ft | 514 kts | 176° |
| 2026-05-05 17:54 | 29.78407 | -82.15408 | 29493 ft | 509 kts | 176° |
| 2026-05-05 17:55 | 29.74929 | -82.14712 | 28893 ft | 503 kts | 176° |
| 2026-05-05 17:55 | 29.71498 | -82.14027 | 28339 ft | 497 kts | 176° |
| 2026-05-05 17:55 | 29.68099 | -82.13351 | 27786 ft | 491 kts | 176° |
| 2026-05-05 17:55 | 29.64744 | -82.12685 | 27250 ft | 486 kts | 176° |
| 2026-05-05 17:56 | 29.61471 | -82.12037 | 26717 ft | 481 kts | 176° |
| 2026-05-05 17:56 | 29.59641 | -82.11675 | 26418 ft | 478 kts | 176° |
| 2026-05-05 17:56 | 29.58825 | -82.11514 | 26267 ft | 477 kts | 176° |
| 2026-05-05 17:57 | 29.57687 | -82.11289 | 26062 ft | 475 kts | 176° |
| 2026-05-05 17:57 | 29.54471 | -82.10654 | 25551 ft | 471 kts | 176° |
| 2026-05-05 17:57 | 29.51251 | -82.10017 | 25028 ft | 466 kts | 176° |
| 2026-05-05 17:57 | 29.48034 | -82.09381 | 24487 ft | 463 kts | 176° |
| 2026-05-05 17:58 | 29.44877 | -82.08756 | 23952 ft | 460 kts | 176° |
| 2026-05-05 17:58 | 29.41727 | -82.08134 | 23363 ft | 457 kts | 176° |
| 2026-05-05 17:58 | 29.38635 | -82.07524 | 22785 ft | 453 kts | 176° |
| 2026-05-05 17:58 | 29.35551 | -82.06914 | 22231 ft | 444 kts | 175° |
| 2026-05-05 17:59 | 29.32533 | -82.06316 | 21694 ft | 432 kts | 175° |
| 2026-05-05 17:59 | 29.29636 | -82.05431 | 21164 ft | 432 kts | 159° |
| 2026-05-05 17:59 | 29.27024 | -82.03797 | 20739 ft | 430 kts | 153° |
| 2026-05-05 17:59 | 29.24434 | -82.02091 | 20243 ft | 427 kts | 153° |
| 2026-05-05 18:00 | 29.21879 | -82.00428 | 19760 ft | 425 kts | 153° |
| 2026-05-05 18:00 | 29.19323 | -81.98791 | 19256 ft | 423 kts | 153° |
| 2026-05-05 18:00 | 29.16744 | -81.97161 | 18758 ft | 421 kts | 153° |
| 2026-05-05 18:00 | 29.14174 | -81.95547 | 18245 ft | 419 kts | 153° |
| 2026-05-05 18:01 | 29.11626 | -81.93950 | 17697 ft | 416 kts | 153° |
| 2026-05-05 18:01 | 29.09123 | -81.92380 | 17191 ft | 412 kts | 153° |
| 2026-05-05 18:01 | 29.06637 | -81.90750 | 16692 ft | 410 kts | 147° |
| 2026-05-05 18:01 | 29.04480 | -81.88625 | 16209 ft | 403 kts | 136° |
| 2026-05-05 18:02 | 29.02530 | -81.86376 | 15706 ft | 393 kts | 136° |
| 2026-05-05 18:02 | 29.00615 | -81.84239 | 15231 ft | 384 kts | 137° |
| 2026-05-05 18:02 | 28.98697 | -81.82161 | 15074 ft | 373 kts | 138° |
| 2026-05-05 18:02 | 28.96909 | -81.80028 | 14711 ft | 371 kts | 130° |
| 2026-05-05 18:03 | 28.95349 | -81.77713 | 14314 ft | 370 kts | 127° |
| 2026-05-05 18:03 | 28.93833 | -81.75334 | 13865 ft | 370 kts | 127° |
| 2026-05-05 18:03 | 28.92309 | -81.72969 | 13403 ft | 369 kts | 128° |
| 2026-05-05 18:03 | 28.90765 | -81.70635 | 12962 ft | 366 kts | 128° |
| 2026-05-05 18:04 | 28.89212 | -81.68324 | 12527 ft | 364 kts | 129° |
| 2026-05-05 18:04 | 28.87687 | -81.66067 | 12107 ft | 362 kts | 129° |
| 2026-05-05 18:04 | 28.86150 | -81.63812 | 11628 ft | 353 kts | 130° |
| 2026-05-05 18:04 | 28.84654 | -81.61638 | 11243 ft | 343 kts | 129° |
| 2026-05-05 18:05 | 28.83247 | -81.59527 | 11100 ft | 325 kts | 129° |
| 2026-05-05 18:05 | 28.81900 | -81.57518 | 10959 ft | 312 kts | 129° |
| 2026-05-05 18:05 | 28.80614 | -81.55609 | 10832 ft | 304 kts | 129° |
| 2026-05-05 18:05 | 28.79169 | -81.53898 | 10618 ft | 294 kts | 150° |
| 2026-05-05 18:06 | 28.77392 | -81.52795 | 10406 ft | 288 kts | 155° |
| 2026-05-05 18:06 | 28.76211 | -81.52102 | 10240 ft | 286 kts | 155° |
| 2026-05-05 18:06 | 28.73900 | -81.50743 | 10079 ft | 276 kts | 155° |
| 2026-05-05 18:06 | 28.72200 | -81.49737 | 9832 ft | 274 kts | 155° |
| 2026-05-05 18:07 | 28.70524 | -81.48742 | 9551 ft | 273 kts | 155° |
| 2026-05-05 18:07 | 28.68843 | -81.47741 | 9269 ft | 271 kts | 155° |
| 2026-05-05 18:07 | 28.67174 | -81.46745 | 8989 ft | 270 kts | 154° |
| 2026-05-05 18:07 | 28.65510 | -81.45750 | 8718 ft | 269 kts | 154° |
| 2026-05-05 18:08 | 28.63873 | -81.44770 | 8464 ft | 268 kts | 154° |
| 2026-05-05 18:08 | 28.62240 | -81.43791 | 8351 ft | 260 kts | 154° |
| 2026-05-05 18:08 | 28.60646 | -81.42874 | 8222 ft | 253 kts | 161° |
| 2026-05-05 18:08 | 28.58958 | -81.42533 | 8124 ft | 242 kts | 177° |
| 2026-05-05 18:09 | 28.57318 | -81.42386 | 8003 ft | 236 kts | 178° |
| 2026-05-05 18:09 | 28.55676 | -81.42344 | 7771 ft | 234 kts | 181° |
| 2026-05-05 18:09 | 28.54045 | -81.42357 | 7562 ft | 233 kts | 182° |
| 2026-05-05 18:09 | 28.52432 | -81.42375 | 7327 ft | 232 kts | 182° |
| 2026-05-05 18:10 | 28.50815 | -81.42369 | 7104 ft | 231 kts | 179° |
| 2026-05-05 18:10 | 28.49201 | -81.42356 | 6867 ft | 231 kts | 182° |
| 2026-05-05 18:10 | 28.47613 | -81.42388 | 6629 ft | 230 kts | 181° |
| 2026-05-05 18:10 | 28.46007 | -81.42416 | 6413 ft | 230 kts | 181° |
| 2026-05-05 18:11 | 28.44408 | -81.42426 | 6156 ft | 230 kts | 181° |
| 2026-05-05 18:11 | 28.42821 | -81.42434 | 5921 ft | 229 kts | 179° |
| 2026-05-05 18:11 | 28.41247 | -81.42413 | 5683 ft | 228 kts | 179° |
| 2026-05-05 18:11 | 28.39650 | -81.42415 | 5449 ft | 228 kts | 180° |
| 2026-05-05 18:12 | 28.38057 | -81.42413 | 5238 ft | 227 kts | 180° |
| 2026-05-05 18:12 | 28.36499 | -81.42409 | 5138 ft | 220 kts | 179° |
| 2026-05-05 18:12 | 28.34986 | -81.42371 | 5025 ft | 221 kts | 178° |
| 2026-05-05 18:12 | 28.33431 | -81.42322 | 4829 ft | 224 kts | 178° |
| 2026-05-05 18:13 | 28.31885 | -81.42272 | 4565 ft | 219 kts | 178° |
| 2026-05-05 18:13 | 28.30404 | -81.42089 | 4287 ft | 215 kts | 157° |
| 2026-05-05 18:13 | 28.29179 | -81.41159 | 4065 ft | 210 kts | 142° |
| 2026-05-05 18:13 | 28.27997 | -81.40164 | 3821 ft | 211 kts | 143° |
| 2026-05-05 18:14 | 28.26820 | -81.39198 | 3567 ft | 208 kts | 143° |
| 2026-05-05 18:14 | 28.25646 | -81.38241 | 3318 ft | 204 kts | 140° |
| 2026-05-05 18:14 | 28.24862 | -81.36987 | 3083 ft | 198 kts | 99° |
| 2026-05-05 18:14 | 28.24938 | -81.35485 | 3058 ft | 189 kts | 82° |
| 2026-05-05 18:15 | 28.25100 | -81.34024 | 3033 ft | 185 kts | 83° |
| 2026-05-05 18:15 | 28.25296 | -81.32602 | 3024 ft | 186 kts | 73° |
| 2026-05-05 18:15 | 28.25733 | -81.31240 | 3020 ft | 186 kts | 68° |
| 2026-05-05 18:15 | 28.26221 | -81.29868 | 3021 ft | 188 kts | 64° |
| 2026-05-05 18:16 | 28.27063 | -81.28746 | 3015 ft | 188 kts | 36° |
| 2026-05-05 18:16 | 28.28323 | -81.28235 | 2716 ft | 198 kts | 4° |
| 2026-05-05 18:16 | 28.29678 | -81.28165 | 2438 ft | 194 kts | 4° |
| 2026-05-05 18:16 | 28.30975 | -81.28101 | 2183 ft | 184 kts | 1° |
| 2026-05-05 18:17 | 28.32225 | -81.28157 | 1961 ft | 174 kts | 359° |
| 2026-05-05 18:17 | 28.33013 | -81.28160 | 1832 ft | 166 kts | 1° |
| 2026-05-05 18:17 | 28.34481 | -81.28159 | 1537 ft | 153 kts | 1° |
| 2026-05-05 18:17 | 28.35549 | -81.28173 | 1334 ft | 153 kts | 1° |
| 2026-05-05 18:18 | 28.36623 | -81.28181 | 1141 ft | 155 kts | 2° |
| 2026-05-05 18:18 | 28.37340 | -81.28180 | 1017 ft | 155 kts | 2° |
| 2026-05-05 18:18 | 28.38439 | -81.28202 | 824 ft | 160 kts | 359° |
| 2026-05-05 18:18 | 28.39555 | -81.28221 | 598 ft | 160 kts | 2° |
| 2026-05-05 18:19 | 28.40669 | -81.28224 | 356 ft | 160 kts | 2° |
| 2026-05-05 18:19 | 28.41748 | -81.28242 | 143 ft | 154 kts | 1° |
| 2026-05-05 18:19 | 28.42530 | -81.28236 | 100 ft | 130 kts | 1° |
| 2026-05-05 18:19 | 28.43036 | -81.28243 | 96 ft | 96 kts | 0° |
| 2026-05-05 18:20 | 28.43403 | -81.28246 | 96 ft | 66 kts | 358° |
| 2026-05-05 18:20 | 28.43683 | -81.28249 | 98 ft | 43 kts | 0° |
| 2026-05-05 18:20 | 28.43778 | -81.28263 | 99 ft | 8 kts | 342° |
| 2026-05-05 18:20 | 28.43835 | -81.28299 | 97 ft | 12 kts | 319° |
| 2026-05-05 18:21 | 28.43876 | -81.28406 | 95 ft | 18 kts | 275° |
| 2026-05-05 18:21 | 28.43874 | -81.28550 | 100 ft | 18 kts | 270° |
| 2026-05-05 18:21 | 28.43874 | -81.28687 | 102 ft | 17 kts | 270° |
| 2026-05-05 18:21 | 28.43872 | -81.28823 | 108 ft | 17 kts | 270° |
| 2026-05-05 18:22 | 28.43872 | -81.28956 | 106 ft | 17 kts | 269° |
| 2026-05-05 18:22 | 28.43871 | -81.29073 | 106 ft | 13 kts | 270° |
| 2026-05-05 18:22 | 28.43870 | -81.29171 | 99 ft | 15 kts | 269° |
| 2026-05-05 18:22 | 28.43838 | -81.29259 | 97 ft | 12 kts | 203° |
| 2026-05-05 18:23 | 28.43756 | -81.29263 | 98 ft | 11 kts | 179° |
| 2026-05-05 18:23 | 28.43709 | -81.29263 | 98 ft | 1 kts | 179° |
| 2026-05-05 18:24 | 28.43708 | -81.29263 | 98 ft | 1 kts | 179° |
| 2026-05-05 18:24 | 28.43704 | -81.29263 | 97 ft | 4 kts | 179° |
| 2026-05-05 18:25 | 28.43635 | -81.29262 | 98 ft | 12 kts | 179° |
| 2026-05-05 18:25 | 28.43584 | -81.29265 | 99 ft | 10 kts | 194° |
| 2026-05-05 18:25 | 28.43552 | -81.29372 | 98 ft | 12 kts | 270° |
| 2026-05-05 18:25 | 28.43552 | -81.29457 | 99 ft | 6 kts | 269° |
| 2026-05-05 18:26 | 28.43551 | -81.29506 | 99 ft | 7 kts | 269° |
| 2026-05-05 18:26 | 28.43551 | -81.29573 | 99 ft | 11 kts | 269° |
| 2026-05-05 18:26 | 28.43550 | -81.29660 | 95 ft | 12 kts | 270° |
| 2026-05-05 18:26 | 28.43550 | -81.29750 | 94 ft | 10 kts | 270° |
| 2026-05-05 18:27 | 28.43550 | -81.29808 | 97 ft | 3 kts | 269° |
| 2026-05-05 18:27 | 28.43549 | -81.29829 | 94 ft | 1 kts | 269° |
| 2026-05-05 18:27 | 28.43549 | -81.29830 | 94 ft | 0 kts | 269° |
| 2026-05-05 18:29 | 28.43549 | -81.29831 | 94 ft | 1 kts | 269° |
| 2026-05-05 18:29 | 28.43543 | -81.29871 | 94 ft | 9 kts | 257° |
| 2026-05-05 18:29 | 28.43527 | -81.29952 | 94 ft | 11 kts | 257° |
| 2026-05-05 18:29 | 28.43514 | -81.30016 | 94 ft | 5 kts | 257° |
| 2026-05-05 18:30 | 28.43509 | -81.30040 | 96 ft | 1 kts | 257° |
| 2026-05-05 18:30 | 28.43509 | -81.30044 | 95 ft | 0 kts | 257° |